sensor_id;sensor_type;location;lat;lon;timestamp;pressure;altitude;pressure_sealevel;temperature;humidity
62655;BME280;48717;55.556;37.816;2023-04-15T00:01:52;100565.31;;;0.18;28.88
62655;BME280;48717;55.556;37.816;2023-04-15T00:04:19;100565.78;;;0.11;28.59
62655;BME280;48717;55.556;37.816;2023-04-15T00:06:50;100586.72;;;0.14;28.80
62655;BME280;48717;55.556;37.816;2023-04-15T00:09:20;100579.91;;;-0.01;28.96
62655;BME280;48717;55.556;37.816;2023-04-15T00:11:49;100578.75;;;-0.06;28.89
62655;BME280;48717;55.556;37.816;2023-04-15T00:14:16;100579.50;;;-0.08;29.73
62655;BME280;48717;55.556;37.816;2023-04-15T00:16:43;100585.81;;;-0.03;28.85
62655;BME280;48717;55.556;37.816;2023-04-15T00:19:10;100574.69;;;-0.17;28.78
62655;BME280;48717;55.556;37.816;2023-04-15T00:21:37;100597.53;;;-0.10;28.96
62655;BME280;48717;55.556;37.816;2023-04-15T00:24:05;100590.06;;;-0.20;28.62
62655;BME280;48717;55.556;37.816;2023-04-15T00:26:32;100576.84;;;-0.25;28.71
62655;BME280;48717;55.556;37.816;2023-04-15T00:28:59;100603.38;;;-0.14;28.95
62655;BME280;48717;55.556;37.816;2023-04-15T00:31:27;100585.28;;;-0.29;28.64
62655;BME280;48717;55.556;37.816;2023-04-15T00:33:54;100576.72;;;-0.43;29.61
62655;BME280;48717;55.556;37.816;2023-04-15T00:36:21;100577.63;;;-0.43;29.65
62655;BME280;48717;55.556;37.816;2023-04-15T00:38:49;100565.66;;;-0.56;29.67
62655;BME280;48717;55.556;37.816;2023-04-15T00:41:17;100619.78;;;-0.30;29.12
62655;BME280;48717;55.556;37.816;2023-04-15T00:43:45;100598.91;;;-0.48;29.05
62655;BME280;48717;55.556;37.816;2023-04-15T00:46:15;100610.13;;;-0.33;28.85
62655;BME280;48717;55.556;37.816;2023-04-15T00:48:43;100626.41;;;-0.35;30.10
62655;BME280;48717;55.556;37.816;2023-04-15T00:51:13;100616.22;;;-0.47;29.64
62655;BME280;48717;55.556;37.816;2023-04-15T00:53:40;100585.88;;;-0.65;29.40
62655;BME280;48717;55.556;37.816;2023-04-15T00:56:07;100607.66;;;-0.46;30.26
62655;BME280;48717;55.556;37.816;2023-04-15T00:58:35;100603.38;;;-0.61;30.68
62655;BME280;48717;55.556;37.816;2023-04-15T01:01:03;100640.34;;;-0.48;29.90
62655;BME280;48717;55.556;37.816;2023-04-15T01:03:30;100642.75;;;-0.51;29.78
62655;BME280;48717;55.556;37.816;2023-04-15T01:05:59;100603.22;;;-0.79;29.66
62655;BME280;48717;55.556;37.816;2023-04-15T01:08:30;100638.03;;;-0.59;29.96
62655;BME280;48717;55.556;37.816;2023-04-15T01:11:00;100656.19;;;-0.59;30.32
62655;BME280;48717;55.556;37.816;2023-04-15T01:13:29;100612.16;;;-0.89;29.63
62655;BME280;48717;55.556;37.816;2023-04-15T01:15:57;100643.31;;;-0.72;30.73
62655;BME280;48717;55.556;37.816;2023-04-15T01:18:24;100642.22;;;-0.76;29.92
62655;BME280;48717;55.556;37.816;2023-04-15T01:20:52;100647.06;;;-0.82;29.81
62655;BME280;48717;55.556;37.816;2023-04-15T01:23:23;100611.44;;;-1.01;30.44
62655;BME280;48717;55.556;37.816;2023-04-15T01:25:50;100631.72;;;-0.94;30.42
62655;BME280;48717;55.556;37.816;2023-04-15T01:28:18;100656.97;;;-0.90;30.77
62655;BME280;48717;55.556;37.816;2023-04-15T01:30:46;100667.88;;;-0.81;30.42
62655;BME280;48717;55.556;37.816;2023-04-15T01:33:14;100644.66;;;-0.94;30.03
62655;BME280;48717;55.556;37.816;2023-04-15T01:36:00;100650.56;;;-0.97;30.78
62655;BME280;48717;55.556;37.816;2023-04-15T01:38:28;100656.59;;;-0.96;30.60
62655;BME280;48717;55.556;37.816;2023-04-15T01:40:55;100629.81;;;-1.12;30.75
62655;BME280;48717;55.556;37.816;2023-04-15T01:43:24;100672.75;;;-1.00;30.73
62655;BME280;48717;55.556;37.816;2023-04-15T01:45:52;100685.19;;;-0.95;31.06
62655;BME280;48717;55.556;37.816;2023-04-15T01:48:19;100685.88;;;-0.97;30.58
62655;BME280;48717;55.556;37.816;2023-04-15T01:50:46;100656.31;;;-1.16;30.53
62655;BME280;48717;55.556;37.816;2023-04-15T01:53:13;100658.53;;;-1.22;30.74
62655;BME280;48717;55.556;37.816;2023-04-15T01:55:41;100653.84;;;-1.14;30.76
62655;BME280;48717;55.556;37.816;2023-04-15T01:58:08;100697.47;;;-1.06;30.92
62655;BME280;48717;55.556;37.816;2023-04-15T02:00:35;100664.97;;;-1.30;31.44
62655;BME280;48717;55.556;37.816;2023-04-15T02:03:02;100701.19;;;-1.15;31.04
62655;BME280;48717;55.556;37.816;2023-04-15T02:05:30;100688.50;;;-1.26;31.30
62655;BME280;48717;55.556;37.816;2023-04-15T02:07:57;100678.66;;;-1.32;31.21
62655;BME280;48717;55.556;37.816;2023-04-15T02:10:24;100703.78;;;-1.15;30.99
62655;BME280;48717;55.556;37.816;2023-04-15T02:12:52;100692.41;;;-1.33;30.88
62655;BME280;48717;55.556;37.816;2023-04-15T02:15:20;100701.91;;;-1.33;30.99
62655;BME280;48717;55.556;37.816;2023-04-15T02:17:49;100721.34;;;-1.25;31.25
62655;BME280;48717;55.556;37.816;2023-04-15T02:20:19;100713.13;;;-1.33;31.19
62655;BME280;48717;55.556;37.816;2023-04-15T02:22:47;100722.06;;;-1.27;30.94
62655;BME280;48717;55.556;37.816;2023-04-15T02:25:15;100722.50;;;-1.35;31.15
62655;BME280;48717;55.556;37.816;2023-04-15T02:27:45;100729.25;;;-1.37;31.27
62655;BME280;48717;55.556;37.816;2023-04-15T02:30:17;100718.22;;;-1.48;31.65
62655;BME280;48717;55.556;37.816;2023-04-15T02:32:44;100705.19;;;-1.49;31.39
62655;BME280;48717;55.556;37.816;2023-04-15T02:35:12;100737.81;;;-1.38;31.56
62655;BME280;48717;55.556;37.816;2023-04-15T02:37:40;100737.50;;;-1.42;31.56
62655;BME280;48717;55.556;37.816;2023-04-15T02:40:10;100733.47;;;-1.52;31.57
62655;BME280;48717;55.556;37.816;2023-04-15T02:42:38;100757.44;;;-1.41;32.16
62655;BME280;48717;55.556;37.816;2023-04-15T02:45:09;100754.03;;;-1.40;31.92
62655;BME280;48717;55.556;37.816;2023-04-15T02:47:38;100761.59;;;-1.43;31.84
62655;BME280;48717;55.556;37.816;2023-04-15T02:50:11;100755.56;;;-1.44;31.99
62655;BME280;48717;55.556;37.816;2023-04-15T02:52:40;100760.53;;;-1.47;31.99
62655;BME280;48717;55.556;37.816;2023-04-15T02:55:09;100754.19;;;-1.52;32.35
62655;BME280;48717;55.556;37.816;2023-04-15T02:57:36;100737.97;;;-1.63;32.15
62655;BME280;48717;55.556;37.816;2023-04-15T03:00:07;100764.81;;;-1.48;31.81
62655;BME280;48717;55.556;37.816;2023-04-15T03:02:39;100772.88;;;-1.43;32.39
62655;BME280;48717;55.556;37.816;2023-04-15T03:05:12;100776.44;;;-1.41;32.11
62655;BME280;48717;55.556;37.816;2023-04-15T03:07:45;100747.78;;;-1.58;32.24
62655;BME280;48717;55.556;37.816;2023-04-15T03:10:12;100772.88;;;-1.43;32.40
62655;BME280;48717;55.556;37.816;2023-04-15T03:12:40;100762.91;;;-1.50;32.02
62655;BME280;48717;55.556;37.816;2023-04-15T03:15:10;100792.16;;;-1.38;32.08
62655;BME280;48717;55.556;37.816;2023-04-15T03:17:42;100790.53;;;-1.36;31.94
62655;BME280;48717;55.556;37.816;2023-04-15T03:20:09;100753.28;;;-1.53;31.79
62655;BME280;48717;55.556;37.816;2023-04-15T03:22:37;100748.00;;;-1.54;32.04
62655;BME280;48717;55.556;37.816;2023-04-15T03:25:04;100777.81;;;-1.33;32.52
62655;BME280;48717;55.556;37.816;2023-04-15T03:27:32;100790.94;;;-1.29;32.33
62655;BME280;48717;55.556;37.816;2023-04-15T03:30:01;100762.69;;;-1.40;31.69
62655;BME280;48717;55.556;37.816;2023-04-15T03:32:31;100755.66;;;-1.56;31.50
62655;BME280;48717;55.556;37.816;2023-04-15T03:34:59;100805.25;;;-1.21;31.67
62655;BME280;48717;55.556;37.816;2023-04-15T03:37:26;100809.03;;;-1.16;31.75
62655;BME280;48717;55.556;37.816;2023-04-15T03:39:53;100811.00;;;-1.12;32.66
62655;BME280;48717;55.556;37.816;2023-04-15T03:42:20;100792.69;;;-1.15;31.47
62655;BME280;48717;55.556;37.816;2023-04-15T03:44:47;100822.03;;;-1.01;31.97
62655;BME280;48717;55.556;37.816;2023-04-15T03:47:14;100802.53;;;-1.09;32.03
62655;BME280;48717;55.556;37.816;2023-04-15T03:49:42;100788.59;;;-1.11;31.76
62655;BME280;48717;55.556;37.816;2023-04-15T03:52:09;100827.88;;;-0.90;31.15
62655;BME280;48717;55.556;37.816;2023-04-15T03:54:36;100787.09;;;-1.08;32.20
62655;BME280;48717;55.556;37.816;2023-04-15T03:57:03;100791.06;;;-0.99;31.78
62655;BME280;48717;55.556;37.816;2023-04-15T03:59:30;100828.81;;;-0.74;31.37
62655;BME280;48717;55.556;37.816;2023-04-15T04:01:57;100789.69;;;-0.79;31.56
62655;BME280;48717;55.556;37.816;2023-04-15T04:04:24;100789.72;;;-0.64;31.24
62655;BME280;48717;55.556;37.816;2023-04-15T04:06:51;100822.81;;;-0.30;30.66
62655;BME280;48717;55.556;37.816;2023-04-15T04:09:18;100818.97;;;-0.21;30.02
62655;BME280;48717;55.556;37.816;2023-04-15T04:11:45;100812.91;;;-0.07;30.41
62655;BME280;48717;55.556;37.816;2023-04-15T04:14:12;100835.88;;;0.17;30.14
62655;BME280;48717;55.556;37.816;2023-04-15T04:16:39;100798.75;;;0.18;30.01
62655;BME280;48717;55.556;37.816;2023-04-15T04:19:06;100827.03;;;0.60;29.68
62655;BME280;48717;55.556;37.816;2023-04-15T04:21:34;100810.47;;;0.73;28.76
62655;BME280;48717;55.556;37.816;2023-04-15T04:24:02;100833.88;;;1.07;29.08
62655;BME280;48717;55.556;37.816;2023-04-15T04:26:29;100815.03;;;1.11;27.92
62655;BME280;48717;55.556;37.816;2023-04-15T04:28:56;100818.53;;;1.28;28.22
62655;BME280;48717;55.556;37.816;2023-04-15T04:31:23;100830.47;;;1.41;27.83
62655;BME280;48717;55.556;37.816;2023-04-15T04:33:50;100808.03;;;1.43;27.53
62655;BME280;48717;55.556;37.816;2023-04-15T04:36:17;100829.78;;;1.62;27.04
62655;BME280;48717;55.556;37.816;2023-04-15T04:38:44;100831.72;;;1.82;26.89
62655;BME280;48717;55.556;37.816;2023-04-15T04:41:11;100836.41;;;1.90;26.56
62655;BME280;48717;55.556;37.816;2023-04-15T04:43:38;100817.03;;;1.66;26.97
62655;BME280;48717;55.556;37.816;2023-04-15T04:46:06;100808.88;;;1.77;26.84
62655;BME280;48717;55.556;37.816;2023-04-15T04:48:33;100829.91;;;1.98;26.78
62655;BME280;48717;55.556;37.816;2023-04-15T04:51:00;100836.50;;;1.91;26.59
62655;BME280;48717;55.556;37.816;2023-04-15T04:53:27;100843.22;;;1.88;26.30
62655;BME280;48717;55.556;37.816;2023-04-15T04:55:54;100848.44;;;1.88;26.91
62655;BME280;48717;55.556;37.816;2023-04-15T04:58:21;100845.75;;;1.86;26.88
62655;BME280;48717;55.556;37.816;2023-04-15T05:00:49;100794.06;;;1.58;26.99
62655;BME280;48717;55.556;37.816;2023-04-15T05:03:16;100806.47;;;1.63;26.24
62655;BME280;48717;55.556;37.816;2023-04-15T05:05:43;100812.31;;;1.59;26.22
62655;BME280;48717;55.556;37.816;2023-04-15T05:08:10;100823.53;;;1.75;26.62
62655;BME280;48717;55.556;37.816;2023-04-15T05:10:38;100829.75;;;1.95;26.51
62655;BME280;48717;55.556;37.816;2023-04-15T05:13:05;100826.63;;;2.02;25.65
62655;BME280;48717;55.556;37.816;2023-04-15T05:15:32;100805.97;;;2.05;25.79
62655;BME280;48717;55.556;37.816;2023-04-15T05:18:00;100852.97;;;2.45;25.50
62655;BME280;48717;55.556;37.816;2023-04-15T05:20:27;100831.75;;;2.19;25.47
62655;BME280;48717;55.556;37.816;2023-04-15T05:22:54;100852.53;;;2.35;25.56
62655;BME280;48717;55.556;37.816;2023-04-15T05:25:21;100851.19;;;2.44;25.02
62655;BME280;48717;55.556;37.816;2023-04-15T05:27:49;100812.28;;;2.29;25.46
62655;BME280;48717;55.556;37.816;2023-04-15T05:30:16;100856.53;;;2.65;24.92
62655;BME280;48717;55.556;37.816;2023-04-15T05:32:43;100822.63;;;2.64;24.96
62655;BME280;48717;55.556;37.816;2023-04-15T05:35:10;100830.75;;;2.70;24.09
62655;BME280;48717;55.556;37.816;2023-04-15T05:37:38;100865.88;;;2.98;24.80
62655;BME280;48717;55.556;37.816;2023-04-15T05:40:05;100849.44;;;2.99;24.80
62655;BME280;48717;55.556;37.816;2023-04-15T05:42:33;100856.03;;;2.91;23.75
62655;BME280;48717;55.556;37.816;2023-04-15T05:45:01;100871.84;;;2.95;23.85
62655;BME280;48717;55.556;37.816;2023-04-15T05:47:31;100844.47;;;2.85;24.05
62655;BME280;48717;55.556;37.816;2023-04-15T05:49:58;100857.31;;;3.00;24.18
62655;BME280;48717;55.556;37.816;2023-04-15T05:52:25;100824.81;;;2.92;24.05
62655;BME280;48717;55.556;37.816;2023-04-15T05:54:53;100854.38;;;3.12;24.57
62655;BME280;48717;55.556;37.816;2023-04-15T05:57:20;100877.50;;;3.62;24.46
62655;BME280;48717;55.556;37.816;2023-04-15T05:59:48;100875.69;;;3.61;23.61
62655;BME280;48717;55.556;37.816;2023-04-15T06:02:15;100868.22;;;3.69;24.30
62655;BME280;48717;55.556;37.816;2023-04-15T06:04:42;100861.34;;;3.71;23.67
62655;BME280;48717;55.556;37.816;2023-04-15T06:07:09;100851.66;;;3.69;23.04
62655;BME280;48717;55.556;37.816;2023-04-15T06:09:36;100850.81;;;3.70;23.03
62655;BME280;48717;55.556;37.816;2023-04-15T06:12:03;100822.78;;;3.64;23.41
62655;BME280;48717;55.556;37.816;2023-04-15T06:14:32;100821.84;;;3.83;23.10
62655;BME280;48717;55.556;37.816;2023-04-15T06:16:59;100863.06;;;4.33;22.65
62655;BME280;48717;55.556;37.816;2023-04-15T06:19:27;100870.13;;;4.57;22.29
62655;BME280;48717;55.556;37.816;2023-04-15T06:21:54;100829.66;;;4.68;22.06
62655;BME280;48717;55.556;37.816;2023-04-15T06:24:21;100880.56;;;5.24;21.71
62655;BME280;48717;55.556;37.816;2023-04-15T06:26:48;100866.38;;;5.42;21.38
62655;BME280;48717;55.556;37.816;2023-04-15T06:29:15;100866.25;;;5.63;21.12
62655;BME280;48717;55.556;37.816;2023-04-15T06:31:46;100876.13;;;5.96;21.00
62655;BME280;48717;55.556;37.816;2023-04-15T06:34:13;100871.97;;;6.01;20.18
62655;BME280;48717;55.556;37.816;2023-04-15T06:36:40;100863.28;;;6.03;20.17
62655;BME280;48717;55.556;37.816;2023-04-15T06:39:07;100836.28;;;6.04;20.02
62655;BME280;48717;55.556;37.816;2023-04-15T06:41:35;100860.94;;;6.36;20.36
62655;BME280;48717;55.556;37.816;2023-04-15T06:44:02;100866.28;;;6.67;20.13
62655;BME280;48717;55.556;37.816;2023-04-15T06:46:29;100862.09;;;6.74;19.77
62655;BME280;48717;55.556;37.816;2023-04-15T06:48:56;100875.94;;;6.68;19.66
62655;BME280;48717;55.556;37.816;2023-04-15T06:51:23;100856.75;;;6.69;18.42
62655;BME280;48717;55.556;37.816;2023-04-15T06:53:52;100860.50;;;6.77;19.26
62655;BME280;48717;55.556;37.816;2023-04-15T06:56:24;100826.03;;;6.65;19.31
62655;BME280;48717;55.556;37.816;2023-04-15T06:58:51;100876.97;;;7.31;19.23
62655;BME280;48717;55.556;37.816;2023-04-15T07:01:18;100859.72;;;7.72;18.59
62655;BME280;48717;55.556;37.816;2023-04-15T07:03:46;100864.84;;;8.35;18.24
62655;BME280;48717;55.556;37.816;2023-04-15T07:06:13;100877.50;;;8.52;17.82
62655;BME280;48717;55.556;37.816;2023-04-15T07:08:40;100840.13;;;8.62;18.02
62655;BME280;48717;55.556;37.816;2023-04-15T07:11:08;100861.63;;;8.82;17.57
62655;BME280;48717;55.556;37.816;2023-04-15T07:13:35;100865.31;;;9.32;17.24
62655;BME280;48717;55.556;37.816;2023-04-15T07:16:02;100854.25;;;9.49;17.43
62655;BME280;48717;55.556;37.816;2023-04-15T07:18:41;100866.63;;;9.53;16.37
62655;BME280;48717;55.556;37.816;2023-04-15T07:21:09;100857.56;;;9.38;16.73
62655;BME280;48717;55.556;37.816;2023-04-15T07:23:36;100862.94;;;9.45;16.71
62655;BME280;48717;55.556;37.816;2023-04-15T07:26:03;100843.53;;;9.39;16.65
62655;BME280;48717;55.556;37.816;2023-04-15T07:28:30;100879.25;;;9.70;16.73
62655;BME280;48717;55.556;37.816;2023-04-15T07:30:57;100861.81;;;9.33;16.18
62655;BME280;48717;55.556;37.816;2023-04-15T07:33:24;100855.78;;;9.37;16.17
62655;BME280;48717;55.556;37.816;2023-04-15T07:35:51;100858.69;;;9.08;16.29
62655;BME280;48717;55.556;37.816;2023-04-15T07:38:18;100876.03;;;9.00;16.58
62655;BME280;48717;55.556;37.816;2023-04-15T07:40:46;100872.75;;;9.10;16.58
62655;BME280;48717;55.556;37.816;2023-04-15T07:43:13;100840.53;;;9.21;16.80
62655;BME280;48717;55.556;37.816;2023-04-15T07:45:40;100867.88;;;9.72;16.47
62655;BME280;48717;55.556;37.816;2023-04-15T07:48:07;100862.13;;;9.93;16.20
62655;BME280;48717;55.556;37.816;2023-04-15T07:50:34;100858.75;;;10.01;15.69
62655;BME280;48717;55.556;37.816;2023-04-15T07:53:01;100849.28;;;9.64;15.78
62655;BME280;48717;55.556;37.816;2023-04-15T07:55:28;100837.16;;;9.73;15.76
62655;BME280;48717;55.556;37.816;2023-04-15T07:57:56;100813.41;;;9.71;16.31
62655;BME280;48717;55.556;37.816;2023-04-15T08:00:23;100840.78;;;10.29;16.37
62655;BME280;48717;55.556;37.816;2023-04-15T08:02:50;100855.53;;;10.73;15.46
62655;BME280;48717;55.556;37.816;2023-04-15T08:05:19;100855.75;;;10.87;14.84
62655;BME280;48717;55.556;37.816;2023-04-15T08:07:46;100831.81;;;10.72;15.00
62655;BME280;48717;55.556;37.816;2023-04-15T08:10:14;100845.38;;;11.00;15.05
62655;BME280;48717;55.556;37.816;2023-04-15T08:12:41;100842.31;;;11.35;14.59
62655;BME280;48717;55.556;37.816;2023-04-15T08:15:08;100862.81;;;11.58;14.38
62655;BME280;48717;55.556;37.816;2023-04-15T08:17:36;100859.97;;;11.39;14.11
62655;BME280;48717;55.556;37.816;2023-04-15T08:22:54;100747.50;;;10.81;15.00
62655;BME280;48717;55.556;37.816;2023-04-15T08:25:22;100855.06;;;11.75;14.15
62655;BME280;48717;55.556;37.816;2023-04-15T08:27:49;100853.59;;;11.25;14.23
62655;BME280;48717;55.556;37.816;2023-04-15T08:30:24;100855.94;;;11.00;14.91
62655;BME280;48717;55.556;37.816;2023-04-15T08:32:51;100855.56;;;11.40;14.67
62655;BME280;48717;55.556;37.816;2023-04-15T08:35:18;100854.00;;;11.56;14.09
62655;BME280;48717;55.556;37.816;2023-04-15T08:37:45;100838.34;;;11.74;13.68
62655;BME280;48717;55.556;37.816;2023-04-15T08:40:12;100823.22;;;11.58;14.01
62655;BME280;48717;55.556;37.816;2023-04-15T08:42:45;100852.56;;;11.86;13.27
62655;BME280;48717;55.556;37.816;2023-04-15T08:45:15;100850.72;;;11.04;14.12
62655;BME280;48717;55.556;37.816;2023-04-15T08:47:44;100839.31;;;11.05;13.97
62655;BME280;48717;55.556;37.816;2023-04-15T08:50:13;100853.50;;;11.15;13.89
62655;BME280;48717;55.556;37.816;2023-04-15T08:52:41;100859.03;;;11.37;14.30
62655;BME280;48717;55.556;37.816;2023-04-15T08:55:08;100828.31;;;10.76;14.39
62655;BME280;48717;55.556;37.816;2023-04-15T08:57:37;100854.47;;;10.60;14.68
62655;BME280;48717;55.556;37.816;2023-04-15T09:00:06;100853.13;;;10.87;14.23
62655;BME280;48717;55.556;37.816;2023-04-15T09:02:33;100850.09;;;10.61;13.86
62655;BME280;48717;55.556;37.816;2023-04-15T09:05:01;100832.25;;;10.44;14.94
62655;BME280;48717;55.556;37.816;2023-04-15T09:07:32;100850.19;;;10.67;14.22
62655;BME280;48717;55.556;37.816;2023-04-15T09:10:00;100849.72;;;10.39;15.26
62655;BME280;48717;55.556;37.816;2023-04-15T09:12:27;100808.22;;;10.25;14.83
62655;BME280;48717;55.556;37.816;2023-04-15T09:14:55;100813.06;;;10.54;15.09
62655;BME280;48717;55.556;37.816;2023-04-15T09:17:23;100822.91;;;10.12;15.31
62655;BME280;48717;55.556;37.816;2023-04-15T09:20:07;100808.50;;;9.90;15.20
62655;BME280;48717;55.556;37.816;2023-04-15T09:22:35;100830.00;;;10.15;15.02
62655;BME280;48717;55.556;37.816;2023-04-15T09:25:24;100797.88;;;10.39;14.65
62655;BME280;48717;55.556;37.816;2023-04-15T09:28:02;100837.22;;;10.81;13.93
62655;BME280;48717;55.556;37.816;2023-04-15T09:30:30;100849.53;;;10.82;14.07
62655;BME280;48717;55.556;37.816;2023-04-15T09:32:59;100842.19;;;10.62;14.21
62655;BME280;48717;55.556;37.816;2023-04-15T09:35:28;100844.59;;;10.47;14.21
62655;BME280;48717;55.556;37.816;2023-04-15T09:38:05;100836.25;;;10.77;14.23
62655;BME280;48717;55.556;37.816;2023-04-15T09:40:38;100847.84;;;10.87;14.42
62655;BME280;48717;55.556;37.816;2023-04-15T09:43:08;100823.03;;;10.76;13.40
62655;BME280;48717;55.556;37.816;2023-04-15T09:45:35;100847.63;;;10.72;14.34
62655;BME280;48717;55.556;37.816;2023-04-15T09:48:17;100842.44;;;10.78;14.10
62655;BME280;48717;55.556;37.816;2023-04-15T09:50:44;100828.31;;;10.73;14.60
62655;BME280;48717;55.556;37.816;2023-04-15T09:53:16;100819.25;;;10.55;14.02
62655;BME280;48717;55.556;37.816;2023-04-15T09:55:45;100794.28;;;10.34;13.79
62655;BME280;48717;55.556;37.816;2023-04-15T09:58:23;100841.13;;;11.11;13.97
62655;BME280;48717;55.556;37.816;2023-04-15T10:00:52;100772.59;;;11.17;13.54
62655;BME280;48717;55.556;37.816;2023-04-15T10:03:21;100843.09;;;12.07;13.81
62655;BME280;48717;55.556;37.816;2023-04-15T10:05:51;100807.78;;;12.01;13.38
62655;BME280;48717;55.556;37.816;2023-04-15T10:08:21;100792.91;;;12.13;12.97
62655;BME280;48717;55.556;37.816;2023-04-15T10:10:53;100812.38;;;12.18;13.12
62655;BME280;48717;55.556;37.816;2023-04-15T10:13:22;100829.41;;;12.56;13.06
62655;BME280;48717;55.556;37.816;2023-04-15T10:15:55;100825.03;;;12.63;12.69
62655;BME280;48717;55.556;37.816;2023-04-15T10:18:33;100804.50;;;12.31;12.02
62655;BME280;48717;55.556;37.816;2023-04-15T10:21:01;100817.63;;;12.15;11.99
62655;BME280;48717;55.556;37.816;2023-04-15T10:23:28;100815.72;;;12.01;12.36
62655;BME280;48717;55.556;37.816;2023-04-15T10:25:56;100804.38;;;12.12;12.43
62655;BME280;48717;55.556;37.816;2023-04-15T10:28:24;100818.47;;;12.11;12.17
62655;BME280;48717;55.556;37.816;2023-04-15T10:30:56;100785.72;;;11.99;12.18
62655;BME280;48717;55.556;37.816;2023-04-15T10:33:41;100662.03;;;11.50;12.08
62655;BME280;48717;55.556;37.816;2023-04-15T10:36:23;100774.50;;;12.22;11.43
62655;BME280;48717;55.556;37.816;2023-04-15T10:38:59;100733.81;;;12.06;12.12
62655;BME280;48717;55.556;37.816;2023-04-15T10:41:32;100720.34;;;11.77;11.72
62655;BME280;48717;55.556;37.816;2023-04-15T10:44:06;100703.16;;;11.26;12.05
62655;BME280;48717;55.556;37.816;2023-04-15T10:46:41;100725.31;;;11.42;12.50
62655;BME280;48717;55.556;37.816;2023-04-15T10:49:14;100678.03;;;11.70;11.97
62655;BME280;48717;55.556;37.816;2023-04-15T10:51:43;100739.31;;;12.33;11.31
62655;BME280;48717;55.556;37.816;2023-04-15T10:56:52;100804.16;;;13.22;11.86
62655;BME280;48717;55.556;37.816;2023-04-15T10:59:36;100815.69;;;13.32;11.17
62655;BME280;48717;55.556;37.816;2023-04-15T11:02:05;100790.19;;;13.73;11.47
62655;BME280;48717;55.556;37.816;2023-04-15T11:04:55;100826.44;;;13.90;10.55
62655;BME280;48717;55.556;37.816;2023-04-15T11:12:51;100783.06;;;14.69;10.79
62655;BME280;48717;55.556;37.816;2023-04-15T11:18:09;100805.72;;;15.63;10.23
62655;BME280;48717;55.556;37.816;2023-04-15T11:20:38;100816.50;;;15.40;10.46
62655;BME280;48717;55.556;37.816;2023-04-15T11:23:05;100806.78;;;15.30;9.89
62655;BME280;48717;55.556;37.816;2023-04-15T11:25:42;100800.38;;;15.66;9.84
62655;BME280;48717;55.556;37.816;2023-04-15T11:28:11;100796.25;;;16.42;10.21
62655;BME280;48717;55.556;37.816;2023-04-15T11:30:39;100792.53;;;16.62;9.57
62655;BME280;48717;55.556;37.816;2023-04-15T11:33:10;100796.25;;;16.46;10.15
62655;BME280;48717;55.556;37.816;2023-04-15T11:35:41;100792.25;;;15.87;9.31
62655;BME280;48717;55.556;37.816;2023-04-15T11:38:10;100751.47;;;15.94;9.38
62655;BME280;48717;55.556;37.816;2023-04-15T11:40:38;100777.00;;;16.15;9.93
62655;BME280;48717;55.556;37.816;2023-04-15T11:43:19;100798.31;;;17.00;9.18
62655;BME280;48717;55.556;37.816;2023-04-15T11:45:57;100780.19;;;17.32;9.42
62655;BME280;48717;55.556;37.816;2023-04-15T11:48:26;100780.56;;;17.68;8.79
62655;BME280;48717;55.556;37.816;2023-04-15T11:50:58;100752.34;;;18.10;9.16
62655;BME280;48717;55.556;37.816;2023-04-15T11:53:47;100776.00;;;18.32;8.53
62655;BME280;48717;55.556;37.816;2023-04-15T11:56:23;100782.19;;;18.32;8.81
62655;BME280;48717;55.556;37.816;2023-04-15T11:58:57;100767.59;;;18.01;9.04
62655;BME280;48717;55.556;37.816;2023-04-15T12:01:36;100760.84;;;17.79;8.99
62655;BME280;48717;55.556;37.816;2023-04-15T12:04:12;100764.59;;;18.22;8.50
62655;BME280;48717;55.556;37.816;2023-04-15T12:06:40;100749.25;;;18.35;9.11
62655;BME280;48717;55.556;37.816;2023-04-15T12:09:17;100759.19;;;19.18;8.31
62655;BME280;48717;55.556;37.816;2023-04-15T12:11:48;100756.03;;;19.78;8.67
62655;BME280;48717;55.556;37.816;2023-04-15T12:14:29;100744.69;;;18.42;8.52
62655;BME280;48717;55.556;37.816;2023-04-15T12:16:59;100765.09;;;18.44;8.36
62655;BME280;48717;55.556;37.816;2023-04-15T12:19:30;100745.56;;;17.88;8.79
62655;BME280;48717;55.556;37.816;2023-04-15T12:22:00;100737.44;;;17.96;8.69
62655;BME280;48717;55.556;37.816;2023-04-15T12:24:33;100742.50;;;17.57;9.14
62655;BME280;48717;55.556;37.816;2023-04-15T12:27:06;100760.13;;;17.00;9.53
62655;BME280;48717;55.556;37.816;2023-04-15T12:29:36;100737.56;;;16.56;10.16
62655;BME280;48717;55.556;37.816;2023-04-15T12:34:34;100767.78;;;16.54;10.21
62655;BME280;48717;55.556;37.816;2023-04-15T12:37:04;100758.56;;;15.95;10.75
62655;BME280;48717;55.556;37.816;2023-04-15T12:39:35;100731.16;;;15.82;10.40
62655;BME280;48717;55.556;37.816;2023-04-15T12:42:03;100763.22;;;15.60;11.15
62655;BME280;48717;55.556;37.816;2023-04-15T12:44:32;100737.19;;;16.04;11.12
62655;BME280;48717;55.556;37.816;2023-04-15T12:47:00;100693.81;;;15.95;11.18
62655;BME280;48717;55.556;37.816;2023-04-15T12:49:30;100741.56;;;16.12;10.85
62655;BME280;48717;55.556;37.816;2023-04-15T12:52:00;100731.25;;;15.71;10.37
62655;BME280;48717;55.556;37.816;2023-04-15T12:54:29;100745.66;;;15.34;10.98
62655;BME280;48717;55.556;37.816;2023-04-15T12:56:56;100761.44;;;15.59;11.04
62655;BME280;48717;55.556;37.816;2023-04-15T12:59:24;100764.09;;;15.59;10.33
62655;BME280;48717;55.556;37.816;2023-04-15T13:01:52;100752.59;;;15.57;10.54
62655;BME280;48717;55.556;37.816;2023-04-15T13:04:20;100770.47;;;15.30;11.00
62655;BME280;48717;55.556;37.816;2023-04-15T13:06:48;100769.63;;;15.23;11.03
62655;BME280;48717;55.556;37.816;2023-04-15T13:09:16;100747.59;;;15.04;11.41